createdAt,value
2022-10-31T00:01:38.665Z,8.20
2022-10-31T00:04:09.577Z,7.20
2022-10-31T00:06:36.484Z,5.90
2022-10-31T00:09:09.863Z,7.25
2022-10-31T00:11:36.732Z,6.75
2022-10-31T00:14:04.163Z,4.45
2022-10-31T00:16:31.696Z,7.40
2022-10-31T00:19:02.556Z,8.05
2022-10-31T00:21:31.457Z,7.30
2022-10-31T00:24:00.130Z,7.50
2022-10-31T00:26:31.850Z,6.40
2022-10-31T00:29:02.117Z,6.82
2022-10-31T00:31:32.108Z,6.22
2022-10-31T00:33:59.182Z,9.38
2022-10-31T00:36:26.068Z,7.63
2022-10-31T00:38:52.938Z,4.00
2022-10-31T00:41:19.951Z,6.28
2022-10-31T00:43:46.993Z,5.35
2022-10-31T00:46:20.941Z,6.43
2022-10-31T00:48:52.373Z,4.82
2022-10-31T00:51:21.788Z,6.65
2022-10-31T00:53:48.674Z,5.00
2022-10-31T00:56:20.084Z,4.80
2022-10-31T00:58:46.949Z,7.90
2022-10-31T01:01:13.908Z,6.80
2022-10-31T01:03:41.001Z,7.65
2022-10-31T01:06:13.706Z,5.55
2022-10-31T01:08:41.223Z,10.38
2022-10-31T01:11:16.623Z,5.25
2022-10-31T01:13:46.981Z,4.25
2022-10-31T01:16:21.129Z,4.85
2022-10-31T01:18:48.207Z,5.05
2022-10-31T01:21:20.861Z,8.80
2022-10-31T01:23:48.007Z,5.50
2022-10-31T01:26:24.159Z,5.40
2022-10-31T01:28:57.865Z,5.20
2022-10-31T01:31:30.895Z,5.88
2022-10-31T01:34:01.486Z,5.30
2022-10-31T01:36:35.487Z,4.85
2022-10-31T01:39:10.486Z,5.32
2022-10-31T01:41:41.289Z,4.85
2022-10-31T01:44:19.469Z,7.10
2022-10-31T01:46:57.798Z,4.93
2022-10-31T01:49:35.699Z,3.92
2022-10-31T01:52:19.974Z,5.50
2022-10-31T01:55:01.080Z,4.32
2022-10-31T01:57:30.244Z,7.20
2022-10-31T02:00:03.865Z,6.68
2022-10-31T02:02:32.957Z,6.00
2022-10-31T02:05:03.794Z,7.45
2022-10-31T02:07:54.394Z,4.80
2022-10-31T02:10:23.654Z,4.25
2022-10-31T02:12:54.621Z,7.03
2022-10-31T02:15:21.954Z,5.07
2022-10-31T02:17:48.824Z,6.88
2022-10-31T02:20:23.871Z,4.93
2022-10-31T02:23:15.781Z,5.28
2022-10-31T02:26:19.045Z,6.50
2022-10-31T02:29:14.067Z,5.03
2022-10-31T02:32:00.711Z,5.97
2022-10-31T02:34:56.873Z,7.63
2022-10-31T02:37:33.268Z,4.50
2022-10-31T02:40:08.815Z,3.80
2022-10-31T02:43:08.059Z,3.70
2022-10-31T02:46:00.636Z,4.43
2022-10-31T02:48:37.353Z,3.45
2022-10-31T02:51:06.094Z,4.57
2022-10-31T02:53:37.855Z,5.53
2022-10-31T02:56:20.299Z,4.25
2022-10-31T02:58:59.641Z,3.28
2022-10-31T03:01:41.191Z,6.35
2022-10-31T03:04:44.662Z,5.50
2022-10-31T03:07:33.009Z,5.13
2022-10-31T03:10:36.809Z,3.28
2022-10-31T03:16:11.878Z,5.93
2022-10-31T03:18:46.003Z,6.05
2022-10-31T03:21:35.732Z,3.55
2022-10-31T03:24:07.561Z,3.05
2022-10-31T03:26:37.837Z,4.78
2022-10-31T03:29:07.988Z,6.20
2022-10-31T03:31:48.636Z,4.07
2022-10-31T03:34:19.061Z,6.43
2022-10-31T03:36:50.323Z,4.68
2022-10-31T03:39:21.738Z,5.20
2022-10-31T03:42:03.774Z,6.68
2022-10-31T03:44:31.550Z,6.85
2022-10-31T03:47:01.127Z,4.82
2022-10-31T03:49:28.861Z,5.78
2022-10-31T03:52:16.721Z,3.25
2022-10-31T03:54:46.100Z,4.05
2022-10-31T03:57:42.596Z,5.18
2022-10-31T04:00:16.931Z,6.55
2022-10-31T04:02:57.047Z,3.58
2022-10-31T04:05:25.024Z,3.65
2022-10-31T04:07:55.885Z,4.03
2022-10-31T04:10:30.140Z,5.22
2022-10-31T04:13:10.449Z,2.85
2022-10-31T04:15:39.528Z,7.13
2022-10-31T04:18:10.032Z,4.57
2022-10-31T04:20:42.962Z,4.32
2022-10-31T04:23:37.000Z,7.57
2022-10-31T04:26:09.421Z,3.45
2022-10-31T04:28:38.509Z,4.93
2022-10-31T04:31:05.769Z,4.43
2022-10-31T04:33:32.641Z,6.10
2022-10-31T04:35:59.474Z,5.30
2022-10-31T04:38:30.841Z,5.70
2022-10-31T04:41:00.191Z,2.92
2022-10-31T04:43:27.086Z,6.10
2022-10-31T04:45:58.884Z,3.30
2022-10-31T04:48:26.476Z,3.58
2022-10-31T04:51:05.527Z,5.47
2022-10-31T04:53:36.913Z,4.78
2022-10-31T04:56:04.130Z,3.83
2022-10-31T04:58:31.012Z,3.38
2022-10-31T05:01:02.600Z,2.63
2022-10-31T05:06:01.176Z,2.38
2022-10-31T05:08:28.020Z,3.70
2022-10-31T05:11:01.620Z,8.52
2022-10-31T05:13:33.624Z,2.25
2022-10-31T05:16:03.878Z,3.85
2022-10-31T05:18:33.219Z,3.97
2022-10-31T05:21:00.052Z,3.25
2022-10-31T05:23:26.909Z,6.30
2022-10-31T05:25:56.211Z,4.50
2022-10-31T05:28:23.046Z,3.40
2022-10-31T05:30:50.917Z,2.92
2022-10-31T05:33:17.740Z,2.90
2022-10-31T05:35:44.592Z,4.40
2022-10-31T05:38:16.301Z,3.03
2022-10-31T05:40:43.153Z,7.00
2022-10-31T05:43:14.823Z,5.80
2022-10-31T05:48:09.644Z,4.28
2022-10-31T05:50:41.259Z,7.85
2022-10-31T05:55:38.043Z,4.07
2022-10-31T05:58:04.971Z,5.78
2022-10-31T06:00:31.892Z,3.78
2022-10-31T06:03:06.490Z,5.80
2022-10-31T06:05:33.907Z,3.70
2022-10-31T06:08:03.465Z,4.10
2022-10-31T06:10:30.679Z,6.38
2022-10-31T06:12:59.990Z,4.18
2022-10-31T06:15:29.373Z,5.88
2022-10-31T06:18:06.177Z,3.22
2022-10-31T06:20:35.905Z,7.07
2022-10-31T06:23:04.549Z,4.22
2022-10-31T06:25:31.879Z,3.85
2022-10-31T06:28:01.173Z,4.32
2022-10-31T06:30:30.518Z,3.40
2022-10-31T06:33:06.129Z,3.03
2022-10-31T06:35:37.929Z,3.03
2022-10-31T06:38:07.349Z,3.50
2022-10-31T06:40:34.341Z,3.65
2022-10-31T06:43:03.678Z,3.90
2022-10-31T06:45:33.078Z,6.18
2022-10-31T06:48:16.514Z,3.70
2022-10-31T06:50:44.332Z,3.35
2022-10-31T06:53:11.808Z,3.60
2022-10-31T06:55:40.948Z,2.63
2022-10-31T06:58:10.324Z,4.50
2022-10-31T07:00:37.703Z,4.68
2022-10-31T07:03:13.639Z,3.85
2022-10-31T07:05:41.139Z,5.15
2022-10-31T07:08:11.730Z,4.38
2022-10-31T07:10:41.119Z,4.53
2022-10-31T07:13:13.793Z,4.90
2022-10-31T07:15:42.606Z,5.47
2022-10-31T07:18:11.638Z,6.63
2022-10-31T07:20:41.053Z,3.55
2022-10-31T07:23:11.627Z,6.22
2022-10-31T07:25:40.161Z,5.38
2022-10-31T07:28:09.885Z,7.68
2022-10-31T07:30:37.179Z,4.43
2022-10-31T07:33:05.007Z,3.60
2022-10-31T07:35:32.774Z,5.57
2022-10-31T07:38:09.411Z,8.25
2022-10-31T07:40:36.310Z,5.45
2022-10-31T07:43:03.420Z,3.08
2022-10-31T07:45:30.564Z,4.28
2022-10-31T07:47:57.652Z,5.97
2022-10-31T07:50:31.111Z,3.75
2022-10-31T07:53:01.701Z,6.85
2022-10-31T07:55:31.719Z,4.38
2022-10-31T07:58:01.207Z,4.60
2022-10-31T08:00:31.495Z,5.50
2022-10-31T08:03:21.697Z,5.40
2022-10-31T08:05:50.972Z,3.63
2022-10-31T08:08:18.259Z,5.53
2022-10-31T08:10:45.152Z,3.63
2022-10-31T08:13:17.663Z,3.45
2022-10-31T08:15:45.448Z,5.93
2022-10-31T08:18:20.094Z,4.93
2022-10-31T08:20:49.156Z,3.95
2022-10-31T08:23:17.004Z,4.68
2022-10-31T08:25:43.971Z,6.88
2022-10-31T08:28:14.896Z,3.75
2022-10-31T08:30:42.634Z,4.28
2022-10-31T08:33:14.712Z,3.50
2022-10-31T08:35:42.088Z,4.85
2022-10-31T08:38:13.720Z,4.88
2022-10-31T08:40:40.895Z,3.80
2022-10-31T08:43:16.584Z,5.65
2022-10-31T08:45:44.916Z,4.85
2022-10-31T08:48:15.280Z,6.10
2022-10-31T08:50:43.489Z,5.68
2022-10-31T08:53:18.382Z,5.90
2022-10-31T08:55:47.286Z,6.70
2022-10-31T08:58:23.130Z,6.90
2022-10-31T09:00:54.381Z,6.97
2022-10-31T09:03:27.446Z,7.10
2022-10-31T09:06:09.718Z,8.65
2022-10-31T09:08:37.356Z,7.68
2022-10-31T09:11:05.497Z,7.15
2022-10-31T09:13:32.339Z,4.25
2022-10-31T09:16:04.970Z,6.05
2022-10-31T09:18:32.858Z,11.30
2022-10-31T09:21:06.348Z,8.00
2022-10-31T09:23:37.989Z,12.55
2022-10-31T09:26:05.100Z,10.85
2022-10-31T09:28:33.222Z,5.95
2022-10-31T09:31:00.090Z,6.25
2022-10-31T09:33:26.996Z,8.88
2022-10-31T09:35:53.940Z,8.27
2022-10-31T09:38:24.586Z,6.30
2022-10-31T09:41:37.368Z,9.87
2022-10-31T09:44:47.629Z,12.07
2022-10-31T09:47:47.771Z,8.05
2022-10-31T09:50:20.460Z,6.90
2022-10-31T09:53:24.879Z,5.57
2022-10-31T09:55:57.958Z,5.78
2022-10-31T09:58:34.197Z,7.30
2022-10-31T10:01:05.393Z,6.72
2022-10-31T10:03:47.495Z,9.55
2022-10-31T10:06:25.517Z,8.23
2022-10-31T10:08:52.480Z,4.63
2022-10-31T10:11:59.847Z,5.50
2022-10-31T10:14:58.573Z,4.88
2022-10-31T10:17:55.188Z,6.38
2022-10-31T10:20:44.311Z,8.35
2022-10-31T10:24:01.422Z,5.25
2022-10-31T10:26:59.886Z,4.13
2022-10-31T10:29:41.812Z,9.55
2022-10-31T10:32:22.198Z,4.80
2022-10-31T10:34:56.149Z,4.25
2022-10-31T10:37:38.502Z,6.57
2022-10-31T10:40:18.023Z,7.18
2022-10-31T10:43:26.776Z,6.20
2022-10-31T10:46:30.228Z,5.43
2022-10-31T10:52:39.669Z,5.78
2022-10-31T10:55:11.643Z,4.13
2022-10-31T10:58:02.496Z,4.95
2022-10-31T11:00:50.460Z,8.35
2022-10-31T11:03:20.684Z,5.10
2022-10-31T11:06:02.748Z,7.10
2022-10-31T11:08:35.140Z,6.03
2022-10-31T11:11:26.449Z,3.92
2022-10-31T11:14:14.911Z,6.22
2022-10-31T11:16:49.529Z,8.50
2022-10-31T11:19:24.693Z,5.90
2022-10-31T11:21:54.759Z,7.25
2022-10-31T11:24:28.417Z,4.85
2022-10-31T11:27:16.284Z,6.15
2022-10-31T11:29:43.598Z,6.50
2022-10-31T11:32:23.707Z,6.53
2022-10-31T11:35:04.714Z,7.13
2022-10-31T11:37:36.531Z,7.03
2022-10-31T11:40:17.766Z,10.27
2022-10-31T11:42:45.076Z,5.22
2022-10-31T11:45:26.744Z,3.47
2022-10-31T11:47:59.790Z,3.25
2022-10-31T11:50:34.165Z,5.78
2022-10-31T11:53:04.914Z,7.03
2022-10-31T11:55:37.301Z,7.10
2022-10-31T11:58:05.791Z,7.00
2022-10-31T12:00:50.397Z,5.20
2022-10-31T12:03:23.275Z,5.57
2022-10-31T12:06:11.143Z,6.65
2022-10-31T12:08:39.898Z,3.63
2022-10-31T12:11:31.037Z,5.05
2022-10-31T12:14:39.952Z,5.28
2022-10-31T12:17:21.022Z,4.47
2022-10-31T12:20:24.145Z,3.72
2022-10-31T12:23:19.181Z,10.63
2022-10-31T12:26:17.649Z,8.63
2022-10-31T12:29:13.313Z,6.72
2022-10-31T12:31:52.050Z,8.43
2022-10-31T12:34:52.429Z,5.90
2022-10-31T12:37:25.097Z,5.63
2022-10-31T12:40:35.252Z,7.10
2022-10-31T12:43:23.329Z,4.53
2022-10-31T12:45:59.724Z,3.30
2022-10-31T12:48:55.559Z,7.47
2022-10-31T12:51:39.657Z,6.60
2022-10-31T12:57:25.057Z,3.30
2022-10-31T13:00:17.362Z,5.63
2022-10-31T13:03:20.461Z,5.35
2022-10-31T13:05:57.834Z,5.03
2022-10-31T13:08:42.881Z,6.72
2022-10-31T13:11:19.377Z,4.70
2022-10-31T13:14:10.479Z,8.05
2022-10-31T13:16:47.745Z,5.13
2022-10-31T13:19:17.027Z,7.35
2022-10-31T13:22:05.821Z,10.35
2022-10-31T13:25:00.263Z,4.55
2022-10-31T13:27:35.511Z,5.38
2022-10-31T13:30:16.225Z,4.65
2022-10-31T13:32:46.549Z,5.63
2022-10-31T13:35:30.789Z,5.30
2022-10-31T13:38:38.684Z,7.57
2022-10-31T13:41:07.461Z,4.43
2022-10-31T13:44:33.274Z,5.80
2022-10-31T13:47:05.798Z,5.95
2022-10-31T13:49:35.099Z,3.92
2022-10-31T13:52:13.227Z,4.53
2022-10-31T13:54:48.269Z,5.60
2022-10-31T13:57:43.950Z,6.07
2022-10-31T14:00:35.744Z,6.13
2022-10-31T14:03:05.049Z,5.20
2022-10-31T14:05:37.475Z,4.72
2022-10-31T14:08:07.446Z,6.82
2022-10-31T14:10:40.015Z,4.45
2022-10-31T14:13:22.243Z,11.18
2022-10-31T14:16:21.018Z,5.20
2022-10-31T14:18:59.539Z,5.05
2022-10-31T14:21:26.412Z,4.85
2022-10-31T14:23:56.878Z,3.95
2022-10-31T14:26:27.257Z,5.07
2022-10-31T14:29:04.265Z,3.83
2022-10-31T14:31:42.832Z,4.72
2022-10-31T14:34:18.211Z,4.13
2022-10-31T14:37:00.344Z,5.40
2022-10-31T14:40:22.547Z,5.88
2022-10-31T14:43:06.662Z,6.22
2022-10-31T14:46:13.886Z,6.60
2022-10-31T14:49:04.878Z,8.30
2022-10-31T14:51:45.198Z,6.30
2022-10-31T14:54:29.933Z,13.43
2022-10-31T14:57:06.351Z,11.32
2022-10-31T14:59:39.256Z,7.40
2022-10-31T15:02:29.574Z,6.93
2022-10-31T15:04:57.542Z,4.78
2022-10-31T15:07:27.516Z,4.63
2022-10-31T15:10:27.378Z,6.28
2022-10-31T15:12:54.464Z,5.03
2022-10-31T15:15:27.555Z,9.63
2022-10-31T15:17:59.254Z,6.85
2022-10-31T15:20:39.508Z,8.63
2022-10-31T15:23:12.261Z,6.47
2022-10-31T15:25:39.209Z,6.20
2022-10-31T15:28:23.960Z,7.47
2022-10-31T15:30:57.099Z,6.93
2022-10-31T15:33:28.003Z,6.70
2022-10-31T15:36:05.345Z,12.98
2022-10-31T15:38:36.889Z,4.82
2022-10-31T15:41:30.665Z,6.65
2022-10-31T15:44:15.879Z,5.25
2022-10-31T15:46:45.231Z,6.45
2022-10-31T15:49:48.614Z,7.55
2022-10-31T15:52:45.308Z,6.63
2022-10-31T15:55:21.740Z,6.20
2022-10-31T15:57:54.381Z,7.63
2022-10-31T16:00:36.293Z,7.97
2022-10-31T16:03:29.746Z,7.68
2022-10-31T16:06:00.015Z,5.00
2022-10-31T16:08:29.974Z,6.85
2022-10-31T16:11:13.336Z,7.90
2022-10-31T16:14:01.717Z,5.80
2022-10-31T16:16:37.377Z,6.90
2022-10-31T16:19:23.146Z,8.10
2022-10-31T16:21:55.458Z,9.43
2022-10-31T16:24:33.544Z,8.48
2022-10-31T16:27:19.116Z,6.13
2022-10-31T16:29:50.528Z,7.90
2022-10-31T16:32:31.124Z,9.82
2022-10-31T16:35:11.282Z,5.65
2022-10-31T16:37:42.198Z,6.43
2022-10-31T16:40:15.161Z,5.07
2022-10-31T16:42:46.707Z,7.13
2022-10-31T16:45:33.223Z,4.90
2022-10-31T16:48:07.535Z,7.88
2022-10-31T16:50:34.478Z,8.75
2022-10-31T16:53:19.255Z,7.82
2022-10-31T16:55:49.413Z,10.25
2022-10-31T16:58:44.900Z,10.88
2022-10-31T17:01:15.485Z,7.55
2022-10-31T17:03:42.567Z,8.27
2022-10-31T17:06:15.604Z,7.20
2022-10-31T17:08:46.778Z,9.48
2022-10-31T17:11:23.449Z,12.38
2022-10-31T17:13:52.867Z,12.23
2022-10-31T17:16:19.715Z,9.48
2022-10-31T17:18:47.564Z,8.73
2022-10-31T17:21:23.094Z,9.77
2022-10-31T17:23:50.824Z,9.85
2022-10-31T17:26:20.888Z,7.78
2022-10-31T17:28:47.923Z,7.30
2022-10-31T17:31:33.131Z,9.27
2022-10-31T17:34:02.729Z,8.85
2022-10-31T17:36:31.496Z,9.00
2022-10-31T17:38:58.496Z,13.15
2022-10-31T17:41:25.431Z,10.65
2022-10-31T17:43:58.825Z,7.50
2022-10-31T17:46:26.154Z,6.68
2022-10-31T17:48:53.051Z,8.50
2022-10-31T17:51:20.094Z,9.85
2022-10-31T17:53:47.036Z,11.98
2022-10-31T17:56:16.522Z,9.18
2022-10-31T17:58:46.488Z,14.43
2022-10-31T18:01:16.577Z,9.70
2022-10-31T18:03:43.823Z,12.20
2022-10-31T18:06:16.669Z,13.35
2022-10-31T18:08:44.536Z,13.68
2022-10-31T18:11:22.079Z,12.98
2022-10-31T18:13:55.341Z,11.45
2022-10-31T18:16:23.054Z,11.75
2022-10-31T18:19:02.118Z,10.48
2022-10-31T18:21:30.216Z,10.20
2022-10-31T18:24:02.081Z,12.90
2022-10-31T18:26:29.242Z,7.85
2022-10-31T18:28:56.275Z,11.32
2022-10-31T18:31:23.431Z,10.02
2022-10-31T18:33:56.603Z,9.48
2022-10-31T18:36:24.816Z,12.93
2022-10-31T18:38:51.977Z,10.90
2022-10-31T18:41:21.227Z,7.97
2022-10-31T18:43:48.139Z,8.82
2022-10-31T18:46:18.007Z,11.45
2022-10-31T18:48:48.538Z,9.82
2022-10-31T18:51:18.596Z,12.88
2022-10-31T18:53:58.117Z,10.15
2022-10-31T18:56:28.696Z,12.77
2022-10-31T18:58:58.553Z,14.70
2022-10-31T19:01:25.731Z,13.93
2022-10-31T19:03:55.229Z,10.95
2022-10-31T19:06:26.536Z,12.90
2022-10-31T19:09:07.816Z,14.70
2022-10-31T19:11:40.776Z,14.20
2022-10-31T19:14:11.101Z,13.85
2022-10-31T19:16:41.245Z,13.30
2022-10-31T19:19:09.620Z,10.40
2022-10-31T19:21:39.258Z,9.52
2022-10-31T19:24:06.931Z,6.43
2022-10-31T19:26:36.525Z,8.88
2022-10-31T19:29:05.646Z,10.43
2022-10-31T19:31:37.424Z,12.98
2022-10-31T19:34:04.895Z,9.50
2022-10-31T19:36:33.417Z,8.73
2022-10-31T19:39:03.280Z,9.40
2022-10-31T19:41:30.282Z,13.68
2022-10-31T19:44:02.357Z,10.27
2022-10-31T19:46:52.473Z,14.60
2022-10-31T19:49:23.156Z,15.02
2022-10-31T19:51:50.808Z,18.77
2022-10-31T19:54:19.974Z,15.32
2022-10-31T19:56:51.600Z,9.68
2022-10-31T19:59:18.534Z,11.88
2022-10-31T20:01:47.759Z,10.02
2022-10-31T20:04:17.240Z,10.57
2022-10-31T20:06:47.155Z,11.65
2022-10-31T20:09:14.931Z,10.63
2022-10-31T20:11:45.996Z,10.85
2022-10-31T20:14:19.497Z,12.65
2022-10-31T20:16:46.932Z,11.75
2022-10-31T20:19:14.233Z,12.82
2022-10-31T20:21:44.172Z,11.40
2022-10-31T20:24:11.695Z,11.75
2022-10-31T20:26:43.603Z,12.52
2022-10-31T20:29:16.098Z,11.77
2022-10-31T20:31:45.014Z,10.20
2022-10-31T20:34:12.755Z,11.57
2022-10-31T20:36:39.791Z,10.25
2022-10-31T20:39:09.523Z,13.13
2022-10-31T20:41:40.125Z,10.88
2022-10-31T20:44:09.704Z,12.98
2022-10-31T20:46:36.632Z,9.77
2022-10-31T20:49:03.810Z,9.40
2022-10-31T20:51:31.902Z,8.63
2022-10-31T20:54:00.618Z,9.35
2022-10-31T20:56:28.843Z,9.57
2022-10-31T20:58:56.799Z,8.18
2022-10-31T21:01:27.884Z,9.68
2022-10-31T21:03:55.898Z,8.00
2022-10-31T21:06:23.616Z,8.93
2022-10-31T21:08:51.561Z,8.70
2022-10-31T21:11:22.860Z,7.55
2022-10-31T21:13:52.834Z,11.20
2022-10-31T21:16:29.778Z,13.00
2022-10-31T21:18:57.117Z,10.23
2022-10-31T21:21:32.595Z,11.13
2022-10-31T21:24:10.686Z,10.30
2022-10-31T21:26:42.431Z,12.65
2022-10-31T21:29:13.819Z,11.95
2022-10-31T21:31:46.885Z,13.00
2022-10-31T21:34:14.762Z,10.02
2022-10-31T21:36:43.849Z,13.73
2022-10-31T21:39:13.128Z,12.35
2022-10-31T21:41:40.106Z,12.32
2022-10-31T21:44:11.720Z,8.93
2022-10-31T21:49:07.092Z,12.98
2022-10-31T21:51:38.194Z,12.93
2022-10-31T21:54:24.587Z,13.05
2022-10-31T21:56:53.753Z,14.25
2022-10-31T21:59:21.117Z,12.80
2022-10-31T22:01:48.871Z,13.32
2022-10-31T22:04:16.507Z,13.75
2022-10-31T22:06:45.759Z,12.68
2022-10-31T22:09:15.052Z,10.85
2022-10-31T22:11:46.023Z,18.60
2022-10-31T22:14:16.873Z,11.95
2022-10-31T22:16:46.349Z,13.48
2022-10-31T22:19:14.607Z,14.80
2022-10-31T22:21:49.040Z,16.05
2022-10-31T22:24:19.197Z,13.75
2022-10-31T22:26:46.113Z,13.15
2022-10-31T22:29:17.316Z,13.70
2022-10-31T22:31:53.241Z,11.32
2022-10-31T22:34:24.096Z,16.77
2022-10-31T22:36:55.337Z,13.60
2022-10-31T22:39:22.215Z,14.27
2022-10-31T22:41:49.189Z,13.93
2022-10-31T22:44:16.072Z,14.25
2022-10-31T22:46:45.130Z,11.32
2022-10-31T22:49:17.220Z,13.43
2022-10-31T22:51:45.130Z,13.52
2022-10-31T22:54:15.967Z,14.55
2022-10-31T22:56:46.017Z,14.30
2022-10-31T22:59:15.182Z,10.10
2022-10-31T23:01:44.969Z,18.40
2022-10-31T23:04:16.188Z,16.88
2022-10-31T23:09:16.880Z,12.50
2022-10-31T23:11:44.481Z,18.10
2022-10-31T23:14:20.896Z,14.77
2022-10-31T23:16:54.622Z,14.63
2022-10-31T23:19:31.895Z,12.27
2022-10-31T23:22:03.958Z,11.07
2022-10-31T23:24:34.669Z,18.23
2022-10-31T23:27:22.955Z,10.87
2022-10-31T23:29:57.524Z,21.48
2022-10-31T23:32:31.323Z,12.48
2022-10-31T23:35:07.841Z,15.90
2022-10-31T23:37:38.585Z,19.13
2022-10-31T23:40:08.784Z,17.08
2022-10-31T23:42:37.946Z,18.25
2022-10-31T23:45:07.598Z,14.93
2022-10-31T23:47:35.777Z,13.18
2022-10-31T23:50:03.638Z,12.30
2022-10-31T23:52:30.475Z,11.23
2022-10-31T23:54:59.956Z,13.90
2022-10-31T23:57:29.333Z,22.23
2022-10-31T23:59:58.439Z,24.17
